Yorktown, Iowa
Current Conditions -  °F | °C
As of 11:55 AM on Monday 24 Nov 2014 (Local Time) from KICL Reporting Station
Overcast Overcast  
Wind Chill: 18°   Ceiling: 2600
Heat Index: 30°   Visibility: 10mi
Dew Point: 21°   Wind: 17mph
Humidity: 69%   Direction: 310°NW
Pressure: 29.75"   Gusts: 25mph
Location:  40.73°N, 95.16°W
Report Text: KICL 241755Z AUTO 31015G22KT 10SM OVC026 M01/M06 A2975 RMK AO2
Loading
Personal Weather Stations






























Interactive Weather Map New forecast layout! Learn more

10-Day Weather Forecast

Advertisements
Track Severe Weather on mobile